Twin Oaks, Missouri
Current Conditions -  °F | °C
As of 1:54 PM on Sunday 28 Dec 2014 (Local Time) from KSUS Reporting Station
Broken Clouds Broken Clouds  
Wind Chill: 35°   Ceiling: 15000
Heat Index: 35°   Visibility: 10mi
Dew Point: 25°   Wind: 0mph
Humidity: 67%   Direction: NA
Pressure: 30.2"   Gusts: NA
Location:  38.5691°N, 90.5462°W
Report Text: KSUS 281954Z 00000KT 10SM SCT022 BKN150 02/M04 A3020 RMK AO2 SLP234 T00171039 $
Loading
Personal Weather Stations






























Interactive Weather Map New forecast layout! Learn more

10-Day Weather Forecast

Advertisements
Track Severe Weather on mobile